sensor_id;sensor_type;location;lat;lon;timestamp;pressure;altitude;pressure_sealevel;temperature;humidity
7480;BME280;3781;42.272;22.658;2023-02-20T00:01:46;94945.28;;;8.59;67.16
7480;BME280;3781;42.272;22.658;2023-02-20T00:04:13;94963.94;;;8.75;66.90
7480;BME280;3781;42.272;22.658;2023-02-20T00:06:40;94963.44;;;8.70;67.00
7480;BME280;3781;42.272;22.658;2023-02-20T00:09:07;94959.69;;;8.74;67.30
7480;BME280;3781;42.272;22.658;2023-02-20T00:11:33;94961.56;;;8.72;67.61
7480;BME280;3781;42.272;22.658;2023-02-20T00:14:00;94976.09;;;8.51;68.41
7480;BME280;3781;42.272;22.658;2023-02-20T00:16:27;94976.72;;;8.55;69.00
7480;BME280;3781;42.272;22.658;2023-02-20T00:18:55;94978.84;;;8.26;69.85
7480;BME280;3781;42.272;22.658;2023-02-20T00:21:22;94980.69;;;8.00;71.40
7480;BME280;3781;42.272;22.658;2023-02-20T00:23:49;94975.88;;;8.07;71.28
7480;BME280;3781;42.272;22.658;2023-02-20T00:26:15;94973.66;;;8.13;70.92
7480;BME280;3781;42.272;22.658;2023-02-20T00:28:43;94972.31;;;7.97;71.42
7480;BME280;3781;42.272;22.658;2023-02-20T00:31:12;94986.38;;;7.93;72.67
7480;BME280;3781;42.272;22.658;2023-02-20T00:33:39;94991.56;;;7.93;73.01
7480;BME280;3781;42.272;22.658;2023-02-20T00:36:13;94996.03;;;8.14;72.04
7480;BME280;3781;42.272;22.658;2023-02-20T00:38:41;94990.69;;;8.05;72.66
7480;BME280;3781;42.272;22.658;2023-02-20T00:41:08;94986.06;;;8.21;71.94
7480;BME280;3781;42.272;22.658;2023-02-20T00:43:36;94997.00;;;8.37;70.48
7480;BME280;3781;42.272;22.658;2023-02-20T00:46:03;94988.53;;;8.35;70.19
7480;BME280;3781;42.272;22.658;2023-02-20T00:48:30;94985.44;;;8.30;71.17
7480;BME280;3781;42.272;22.658;2023-02-20T00:50:57;94974.84;;;8.33;71.21
7480;BME280;3781;42.272;22.658;2023-02-20T00:53:25;94977.63;;;8.54;71.43
7480;BME280;3781;42.272;22.658;2023-02-20T00:55:51;94977.72;;;8.87;69.57
7480;BME280;3781;42.272;22.658;2023-02-20T00:58:18;94986.34;;;8.98;68.51
7480;BME280;3781;42.272;22.658;2023-02-20T01:00:45;94969.25;;;9.07;67.95
7480;BME280;3781;42.272;22.658;2023-02-20T01:03:12;94977.06;;;8.96;67.91
7480;BME280;3781;42.272;22.658;2023-02-20T01:05:39;94926.13;;;8.73;67.57
7480;BME280;3781;42.272;22.658;2023-02-20T01:08:05;94943.41;;;8.61;69.08
7480;BME280;3781;42.272;22.658;2023-02-20T01:10:33;94952.13;;;8.60;69.87
7480;BME280;3781;42.272;22.658;2023-02-20T01:13:00;94954.69;;;8.49;70.66
7480;BME280;3781;42.272;22.658;2023-02-20T01:15:27;94964.00;;;8.52;70.22
7480;BME280;3781;42.272;22.658;2023-02-20T01:17:53;94962.53;;;8.37;71.89
7480;BME280;3781;42.272;22.658;2023-02-20T01:20:20;94967.84;;;8.46;72.63
7480;BME280;3781;42.272;22.658;2023-02-20T01:22:47;94974.34;;;8.52;71.48
7480;BME280;3781;42.272;22.658;2023-02-20T01:25:14;94972.16;;;8.34;72.35
7480;BME280;3781;42.272;22.658;2023-02-20T01:27:42;94978.06;;;8.37;72.46
7480;BME280;3781;42.272;22.658;2023-02-20T01:30:09;94981.31;;;8.27;73.30
7480;BME280;3781;42.272;22.658;2023-02-20T01:32:36;94975.13;;;8.41;71.89
7480;BME280;3781;42.272;22.658;2023-02-20T01:35:03;94980.06;;;8.20;73.29
7480;BME280;3781;42.272;22.658;2023-02-20T01:37:30;94975.72;;;8.21;73.01
7480;BME280;3781;42.272;22.658;2023-02-20T01:39:57;94969.31;;;8.14;72.90
7480;BME280;3781;42.272;22.658;2023-02-20T01:42:27;94936.09;;;7.97;73.17
7480;BME280;3781;42.272;22.658;2023-02-20T01:45:17;94966.03;;;8.12;72.78
7480;BME280;3781;42.272;22.658;2023-02-20T01:47:45;94955.16;;;7.96;72.83
7480;BME280;3781;42.272;22.658;2023-02-20T01:50:12;94958.53;;;7.73;74.33
7480;BME280;3781;42.272;22.658;2023-02-20T01:52:40;94967.44;;;7.69;74.50
7480;BME280;3781;42.272;22.658;2023-02-20T01:55:10;94955.16;;;7.59;75.07
7480;BME280;3781;42.272;22.658;2023-02-20T01:57:42;94964.78;;;7.57;76.24
7480;BME280;3781;42.272;22.658;2023-02-20T02:00:14;94981.16;;;7.45;77.20
7480;BME280;3781;42.272;22.658;2023-02-20T02:02:47;94981.94;;;7.46;78.51
7480;BME280;3781;42.272;22.658;2023-02-20T02:05:16;94971.41;;;7.49;77.71
7480;BME280;3781;42.272;22.658;2023-02-20T02:07:44;94982.44;;;7.63;77.41
7480;BME280;3781;42.272;22.658;2023-02-20T02:10:13;94980.91;;;7.61;77.78
7480;BME280;3781;42.272;22.658;2023-02-20T02:12:45;94976.84;;;7.70;77.85
7480;BME280;3781;42.272;22.658;2023-02-20T02:15:14;94990.34;;;7.86;77.71
7480;BME280;3781;42.272;22.658;2023-02-20T02:18:13;95002.91;;;8.03;77.58
7480;BME280;3781;42.272;22.658;2023-02-20T02:27:27;95024.88;;;8.68;74.22
7480;BME280;3781;42.272;22.658;2023-02-20T02:30:07;95030.75;;;8.70;74.36
7480;BME280;3781;42.272;22.658;2023-02-20T02:33:01;95037.59;;;8.71;74.45
7480;BME280;3781;42.272;22.658;2023-02-20T02:35:58;95052.91;;;8.74;75.07
7480;BME280;3781;42.272;22.658;2023-02-20T02:38:38;95063.50;;;8.71;78.86
7480;BME280;3781;42.272;22.658;2023-02-20T02:41:16;95074.78;;;8.70;81.40
7480;BME280;3781;42.272;22.658;2023-02-20T02:43:49;95076.56;;;8.70;81.82
7480;BME280;3781;42.272;22.658;2023-02-20T02:46:25;95083.16;;;8.74;82.49
7480;BME280;3781;42.272;22.658;2023-02-20T02:48:58;95079.25;;;8.68;85.11
7480;BME280;3781;42.272;22.658;2023-02-20T02:51:33;95085.09;;;8.59;87.66
7480;BME280;3781;42.272;22.658;2023-02-20T02:54:07;95067.97;;;8.46;89.24
7480;BME280;3781;42.272;22.658;2023-02-20T02:56:35;95086.75;;;8.60;89.04
7480;BME280;3781;42.272;22.658;2023-02-20T02:59:04;95083.44;;;8.58;90.59
7480;BME280;3781;42.272;22.658;2023-02-20T03:01:34;95093.69;;;8.60;90.88
7480;BME280;3781;42.272;22.658;2023-02-20T03:04:06;95095.44;;;8.59;90.81
7480;BME280;3781;42.272;22.658;2023-02-20T03:06:38;95083.44;;;8.58;87.71
7480;BME280;3781;42.272;22.658;2023-02-20T03:09:10;95099.28;;;8.77;87.19
7480;BME280;3781;42.272;22.658;2023-02-20T03:11:39;95091.78;;;8.85;85.76
7480;BME280;3781;42.272;22.658;2023-02-20T03:14:09;95104.94;;;8.71;86.54
7480;BME280;3781;42.272;22.658;2023-02-20T03:16:58;95084.75;;;8.40;86.37
7480;BME280;3781;42.272;22.658;2023-02-20T03:19:32;95098.66;;;8.39;84.22
7480;BME280;3781;42.272;22.658;2023-02-20T03:22:04;95114.44;;;8.71;79.41
7480;BME280;3781;42.272;22.658;2023-02-20T03:24:34;95106.16;;;8.78;78.73
7480;BME280;3781;42.272;22.658;2023-02-20T03:27:20;95110.63;;;8.87;76.07
7480;BME280;3781;42.272;22.658;2023-02-20T03:29:49;95123.69;;;8.86;76.05
7480;BME280;3781;42.272;22.658;2023-02-20T03:32:18;95098.00;;;8.72;74.90
7480;BME280;3781;42.272;22.658;2023-02-20T03:35:05;95114.84;;;8.77;73.89
7480;BME280;3781;42.272;22.658;2023-02-20T03:37:51;95138.41;;;8.85;73.02
7480;BME280;3781;42.272;22.658;2023-02-20T03:40:36;95138.13;;;8.77;72.71
7480;BME280;3781;42.272;22.658;2023-02-20T03:43:21;95131.19;;;8.54;73.89
7480;BME280;3781;42.272;22.658;2023-02-20T03:45:50;95141.75;;;8.51;74.34
7480;BME280;3781;42.272;22.658;2023-02-20T03:48:21;95149.72;;;8.61;73.83
7480;BME280;3781;42.272;22.658;2023-02-20T03:50:49;95155.22;;;8.80;72.16
7480;BME280;3781;42.272;22.658;2023-02-20T03:53:35;95161.25;;;8.68;72.68
7480;BME280;3781;42.272;22.658;2023-02-20T03:56:04;95150.31;;;8.64;70.94
7480;BME280;3781;42.272;22.658;2023-02-20T03:58:35;95150.69;;;8.71;70.05
7480;BME280;3781;42.272;22.658;2023-02-20T04:01:04;95146.50;;;8.57;71.08
7480;BME280;3781;42.272;22.658;2023-02-20T04:03:34;95139.81;;;8.42;71.17
7480;BME280;3781;42.272;22.658;2023-02-20T04:06:05;95154.16;;;8.35;71.71
7480;BME280;3781;42.272;22.658;2023-02-20T04:08:36;95166.78;;;8.27;72.72
7480;BME280;3781;42.272;22.658;2023-02-20T04:11:07;95170.47;;;8.23;73.07
7480;BME280;3781;42.272;22.658;2023-02-20T04:13:36;95168.84;;;8.34;71.60
7480;BME280;3781;42.272;22.658;2023-02-20T04:16:05;95173.06;;;8.48;69.86
7480;BME280;3781;42.272;22.658;2023-02-20T04:18:33;95176.41;;;8.61;68.75
7480;BME280;3781;42.272;22.658;2023-02-20T04:21:02;95178.28;;;8.59;69.17
7480;BME280;3781;42.272;22.658;2023-02-20T04:23:33;95189.22;;;8.39;69.14
7480;BME280;3781;42.272;22.658;2023-02-20T04:26:06;95189.44;;;8.36;69.27
7480;BME280;3781;42.272;22.658;2023-02-20T04:28:35;95190.59;;;8.32;69.01
7480;BME280;3781;42.272;22.658;2023-02-20T04:31:01;95185.25;;;8.46;68.15
7480;BME280;3781;42.272;22.658;2023-02-20T04:33:28;95158.50;;;8.34;67.75
7480;BME280;3781;42.272;22.658;2023-02-20T04:35:55;95178.31;;;8.47;67.50
7480;BME280;3781;42.272;22.658;2023-02-20T04:38:23;95175.13;;;8.43;67.35
7480;BME280;3781;42.272;22.658;2023-02-20T04:40:50;95171.13;;;8.39;67.43
7480;BME280;3781;42.272;22.658;2023-02-20T04:43:18;95148.97;;;8.35;66.93
7480;BME280;3781;42.272;22.658;2023-02-20T04:45:44;95141.69;;;8.40;66.76
7480;BME280;3781;42.272;22.658;2023-02-20T04:48:11;95152.47;;;8.34;66.86
7480;BME280;3781;42.272;22.658;2023-02-20T04:50:38;95148.78;;;8.13;66.76
7480;BME280;3781;42.272;22.658;2023-02-20T04:53:05;95159.53;;;8.19;65.29
7480;BME280;3781;42.272;22.658;2023-02-20T04:55:33;95154.56;;;8.16;65.27
7480;BME280;3781;42.272;22.658;2023-02-20T04:57:59;95179.72;;;8.27;64.71
7480;BME280;3781;42.272;22.658;2023-02-20T05:00:28;95168.72;;;8.23;64.48
7480;BME280;3781;42.272;22.658;2023-02-20T05:02:55;95170.16;;;8.40;62.35
7480;BME280;3781;42.272;22.658;2023-02-20T05:05:24;95186.66;;;8.39;62.79
7480;BME280;3781;42.272;22.658;2023-02-20T05:07:53;95198.19;;;8.46;62.28
7480;BME280;3781;42.272;22.658;2023-02-20T05:10:21;95184.75;;;8.16;63.36
7480;BME280;3781;42.272;22.658;2023-02-20T05:12:48;95197.94;;;8.13;62.80
7480;BME280;3781;42.272;22.658;2023-02-20T05:15:15;95222.88;;;8.39;62.42
7480;BME280;3781;42.272;22.658;2023-02-20T05:17:43;95216.66;;;8.42;62.18
7480;BME280;3781;42.272;22.658;2023-02-20T05:20:11;95227.06;;;8.53;62.02
7480;BME280;3781;42.272;22.658;2023-02-20T05:22:38;95222.59;;;8.67;61.62
7480;BME280;3781;42.272;22.658;2023-02-20T05:25:04;95221.81;;;8.54;61.58
7480;BME280;3781;42.272;22.658;2023-02-20T05:27:31;95219.53;;;8.50;61.72
7480;BME280;3781;42.272;22.658;2023-02-20T05:29:58;95238.78;;;8.58;62.02
7480;BME280;3781;42.272;22.658;2023-02-20T05:32:28;95248.09;;;8.61;61.78
7480;BME280;3781;42.272;22.658;2023-02-20T05:34:57;95255.56;;;8.65;61.97
7480;BME280;3781;42.272;22.658;2023-02-20T05:37:25;95246.41;;;8.72;61.92
7480;BME280;3781;42.272;22.658;2023-02-20T05:39:52;95237.28;;;8.79;61.06
7480;BME280;3781;42.272;22.658;2023-02-20T05:42:19;95244.91;;;8.93;60.86
7480;BME280;3781;42.272;22.658;2023-02-20T05:44:47;95250.38;;;9.01;60.49
7480;BME280;3781;42.272;22.658;2023-02-20T05:47:14;95247.31;;;9.07;60.79
7480;BME280;3781;42.272;22.658;2023-02-20T05:49:41;95250.97;;;9.05;60.32
7480;BME280;3781;42.272;22.658;2023-02-20T05:52:11;95244.72;;;9.07;59.96
7480;BME280;3781;42.272;22.658;2023-02-20T05:54:39;95246.47;;;9.20;59.82
7480;BME280;3781;42.272;22.658;2023-02-20T05:57:06;95222.44;;;9.18;59.12
7480;BME280;3781;42.272;22.658;2023-02-20T05:59:32;95203.88;;;9.35;58.02
7480;BME280;3781;42.272;22.658;2023-02-20T06:02:00;95247.75;;;9.83;57.10
7480;BME280;3781;42.272;22.658;2023-02-20T06:04:27;95268.22;;;10.10;56.43
7480;BME280;3781;42.272;22.658;2023-02-20T06:06:53;95267.59;;;10.30;55.59
7480;BME280;3781;42.272;22.658;2023-02-20T06:09:22;95269.22;;;10.31;55.74
7480;BME280;3781;42.272;22.658;2023-02-20T06:11:50;95298.03;;;10.28;56.50
7480;BME280;3781;42.272;22.658;2023-02-20T06:14:18;95300.94;;;10.13;55.13
7480;BME280;3781;42.272;22.658;2023-02-20T06:16:45;95283.03;;;9.86;55.17
7480;BME280;3781;42.272;22.658;2023-02-20T06:19:17;95274.06;;;9.90;55.56
7480;BME280;3781;42.272;22.658;2023-02-20T06:21:45;95304.06;;;10.05;55.43
7480;BME280;3781;42.272;22.658;2023-02-20T06:24:11;95314.06;;;10.11;55.20
7480;BME280;3781;42.272;22.658;2023-02-20T06:26:40;95317.94;;;10.17;55.24
7480;BME280;3781;42.272;22.658;2023-02-20T06:29:08;95313.81;;;10.14;54.96
7480;BME280;3781;42.272;22.658;2023-02-20T06:31:35;95286.38;;;9.99;55.02
7480;BME280;3781;42.272;22.658;2023-02-20T06:34:02;95287.06;;;10.01;54.87
7480;BME280;3781;42.272;22.658;2023-02-20T06:36:31;95302.59;;;10.14;54.97
7480;BME280;3781;42.272;22.658;2023-02-20T06:38:58;95306.03;;;10.25;55.28
7480;BME280;3781;42.272;22.658;2023-02-20T06:41:25;95313.38;;;10.31;55.52
7480;BME280;3781;42.272;22.658;2023-02-20T06:43:53;95302.78;;;10.45;54.59
7480;BME280;3781;42.272;22.658;2023-02-20T06:46:20;95307.41;;;10.86;53.71
7480;BME280;3781;42.272;22.658;2023-02-20T06:48:48;95303.84;;;11.63;50.82
7480;BME280;3781;42.272;22.658;2023-02-20T06:51:16;95316.72;;;11.76;51.06
7480;BME280;3781;42.272;22.658;2023-02-20T06:53:43;95321.53;;;11.80;51.12
7480;BME280;3781;42.272;22.658;2023-02-20T06:56:14;95313.47;;;11.83;50.67
7480;BME280;3781;42.272;22.658;2023-02-20T06:58:43;95312.34;;;11.65;50.41
7480;BME280;3781;42.272;22.658;2023-02-20T07:01:11;95321.81;;;11.55;50.59
7480;BME280;3781;42.272;22.658;2023-02-20T07:03:37;95333.31;;;12.16;48.96
7480;BME280;3781;42.272;22.658;2023-02-20T07:06:05;95298.66;;;12.36;48.23
7480;BME280;3781;42.272;22.658;2023-02-20T07:08:31;95323.84;;;12.77;46.77
7480;BME280;3781;42.272;22.658;2023-02-20T07:10:58;95329.16;;;12.96;46.38
7480;BME280;3781;42.272;22.658;2023-02-20T07:13:25;95326.78;;;12.93;45.01
7480;BME280;3781;42.272;22.658;2023-02-20T07:15:51;95322.22;;;12.85;45.30
7480;BME280;3781;42.272;22.658;2023-02-20T07:18:20;95317.75;;;13.27;44.51
7480;BME280;3781;42.272;22.658;2023-02-20T07:20:48;95329.63;;;13.50;43.18
7480;BME280;3781;42.272;22.658;2023-02-20T07:23:15;95344.66;;;13.28;42.89
7480;BME280;3781;42.272;22.658;2023-02-20T07:25:41;95342.47;;;13.23;42.72
7480;BME280;3781;42.272;22.658;2023-02-20T07:28:08;95350.72;;;13.28;42.13
7480;BME280;3781;42.272;22.658;2023-02-20T07:30:35;95359.03;;;12.92;43.19
7480;BME280;3781;42.272;22.658;2023-02-20T07:33:02;95357.69;;;13.77;41.61
7480;BME280;3781;42.272;22.658;2023-02-20T07:35:30;95369.97;;;14.05;40.75
7480;BME280;3781;42.272;22.658;2023-02-20T07:37:57;95376.03;;;14.15;40.10
7480;BME280;3781;42.272;22.658;2023-02-20T07:40:23;95349.59;;;13.01;41.53
7480;BME280;3781;42.272;22.658;2023-02-20T07:42:50;95362.63;;;13.21;41.89
7480;BME280;3781;42.272;22.658;2023-02-20T07:45:17;95374.50;;;13.94;40.88
7480;BME280;3781;42.272;22.658;2023-02-20T07:47:44;95366.28;;;14.17;39.57
7480;BME280;3781;42.272;22.658;2023-02-20T07:50:12;95350.72;;;14.54;38.89
7480;BME280;3781;42.272;22.658;2023-02-20T07:52:41;95365.13;;;14.77;38.84
7480;BME280;3781;42.272;22.658;2023-02-20T07:55:08;95359.59;;;16.08;36.88
7480;BME280;3781;42.272;22.658;2023-02-20T07:57:36;95333.31;;;16.35;36.14
7480;BME280;3781;42.272;22.658;2023-02-20T08:00:04;95349.47;;;15.51;37.11
7480;BME280;3781;42.272;22.658;2023-02-20T08:02:32;95340.03;;;16.20;36.38
7480;BME280;3781;42.272;22.658;2023-02-20T08:04:59;95344.38;;;15.13;37.48
7480;BME280;3781;42.272;22.658;2023-02-20T08:07:26;95352.56;;;15.27;37.97
7480;BME280;3781;42.272;22.658;2023-02-20T08:09:54;95336.00;;;15.36;37.32
7480;BME280;3781;42.272;22.658;2023-02-20T08:12:20;95343.81;;;16.18;35.84
7480;BME280;3781;42.272;22.658;2023-02-20T08:14:49;95338.34;;;16.90;34.93
7480;BME280;3781;42.272;22.658;2023-02-20T08:17:16;95345.53;;;17.13;34.70
7480;BME280;3781;42.272;22.658;2023-02-20T08:19:43;95333.78;;;16.31;36.04
7480;BME280;3781;42.272;22.658;2023-02-20T08:22:09;95351.78;;;15.27;37.25
7480;BME280;3781;42.272;22.658;2023-02-20T08:24:36;95356.84;;;15.65;37.88
7480;BME280;3781;42.272;22.658;2023-02-20T08:27:04;95362.59;;;15.68;36.32
7480;BME280;3781;42.272;22.658;2023-02-20T08:29:31;95357.41;;;16.74;35.81
7480;BME280;3781;42.272;22.658;2023-02-20T08:31:58;95364.78;;;17.97;33.53
7480;BME280;3781;42.272;22.658;2023-02-20T08:34:24;95336.72;;;16.97;34.69
7480;BME280;3781;42.272;22.658;2023-02-20T08:36:51;95350.09;;;16.86;34.24
7480;BME280;3781;42.272;22.658;2023-02-20T08:39:18;95347.44;;;16.07;35.63
7480;BME280;3781;42.272;22.658;2023-02-20T08:41:45;95358.31;;;16.12;35.41
7480;BME280;3781;42.272;22.658;2023-02-20T08:44:14;95366.09;;;16.75;35.33
7480;BME280;3781;42.272;22.658;2023-02-20T08:46:45;95354.97;;;18.32;32.36
7480;BME280;3781;42.272;22.658;2023-02-20T08:49:12;95364.81;;;16.79;33.79
7480;BME280;3781;42.272;22.658;2023-02-20T08:51:39;95368.41;;;17.29;33.76
7480;BME280;3781;42.272;22.658;2023-02-20T08:54:06;95364.31;;;17.26;32.94
7480;BME280;3781;42.272;22.658;2023-02-20T08:56:32;95341.00;;;17.31;33.92
7480;BME280;3781;42.272;22.658;2023-02-20T08:58:59;95348.03;;;17.23;33.41
7480;BME280;3781;42.272;22.658;2023-02-20T09:01:27;95327.13;;;17.81;32.57
7480;BME280;3781;42.272;22.658;2023-02-20T09:03:54;95348.41;;;19.00;30.96
7480;BME280;3781;42.272;22.658;2023-02-20T09:06:21;95340.53;;;18.84;30.47
7480;BME280;3781;42.272;22.658;2023-02-20T09:08:50;95344.13;;;18.35;30.02
7480;BME280;3781;42.272;22.658;2023-02-20T09:11:17;95330.19;;;17.34;31.27
7480;BME280;3781;42.272;22.658;2023-02-20T09:13:44;95336.97;;;16.42;32.25
7480;BME280;3781;42.272;22.658;2023-02-20T09:16:12;95341.25;;;16.61;32.74
7480;BME280;3781;42.272;22.658;2023-02-20T09:18:40;95332.63;;;17.28;31.85
7480;BME280;3781;42.272;22.658;2023-02-20T09:21:08;95320.19;;;15.65;33.05
7480;BME280;3781;42.272;22.658;2023-02-20T09:23:35;95312.72;;;14.69;35.19
7480;BME280;3781;42.272;22.658;2023-02-20T09:26:02;95316.44;;;15.67;33.92
7480;BME280;3781;42.272;22.658;2023-02-20T09:28:29;95312.13;;;15.76;33.50
7480;BME280;3781;42.272;22.658;2023-02-20T09:30:56;95328.84;;;15.48;34.22
7480;BME280;3781;42.272;22.658;2023-02-20T09:33:26;95312.69;;;16.58;32.66
7480;BME280;3781;42.272;22.658;2023-02-20T09:35:54;95294.59;;;17.74;30.61
7480;BME280;3781;42.272;22.658;2023-02-20T09:38:22;95315.56;;;17.24;31.13
7480;BME280;3781;42.272;22.658;2023-02-20T09:40:53;95318.31;;;16.28;32.81
7480;BME280;3781;42.272;22.658;2023-02-20T09:43:29;95321.16;;;14.25;35.74
7480;BME280;3781;42.272;22.658;2023-02-20T09:46:04;95285.00;;;13.73;36.58
7480;BME280;3781;42.272;22.658;2023-02-20T09:48:42;95328.81;;;14.74;37.13
7480;BME280;3781;42.272;22.658;2023-02-20T09:51:15;95329.72;;;16.01;33.94
7480;BME280;3781;42.272;22.658;2023-02-20T09:53:51;95337.50;;;15.48;34.75
7480;BME280;3781;42.272;22.658;2023-02-20T09:56:20;95332.09;;;16.65;33.99
7480;BME280;3781;42.272;22.658;2023-02-20T09:58:52;95340.13;;;17.15;32.38
7480;BME280;3781;42.272;22.658;2023-02-20T10:01:24;95331.34;;;17.40;31.48
7480;BME280;3781;42.272;22.658;2023-02-20T10:03:54;95342.91;;;17.97;31.44
7480;BME280;3781;42.272;22.658;2023-02-20T10:06:25;95300.44;;;18.50;30.02
7480;BME280;3781;42.272;22.658;2023-02-20T10:08:53;95324.13;;;17.00;32.16
7480;BME280;3781;42.272;22.658;2023-02-20T10:11:35;95322.16;;;16.16;33.37
7480;BME280;3781;42.272;22.658;2023-02-20T10:14:18;95321.91;;;16.88;32.31
7480;BME280;3781;42.272;22.658;2023-02-20T10:16:53;95325.69;;;18.02;30.67
7480;BME280;3781;42.272;22.658;2023-02-20T10:19:27;95343.38;;;17.84;30.49
7480;BME280;3781;42.272;22.658;2023-02-20T10:22:04;95316.38;;;17.24;31.14
7480;BME280;3781;42.272;22.658;2023-02-20T10:24:46;95321.91;;;16.27;31.83
7480;BME280;3781;42.272;22.658;2023-02-20T10:27:25;95304.53;;;14.91;33.79
7480;BME280;3781;42.272;22.658;2023-02-20T10:29:55;95270.72;;;14.15;34.90
7480;BME280;3781;42.272;22.658;2023-02-20T10:32:25;95312.09;;;14.10;35.62
7480;BME280;3781;42.272;22.658;2023-02-20T10:34:57;95299.97;;;15.30;34.32
7480;BME280;3781;42.272;22.658;2023-02-20T10:37:33;95305.94;;;15.50;34.13
7480;BME280;3781;42.272;22.658;2023-02-20T10:40:07;95292.56;;;14.14;35.13
7480;BME280;3781;42.272;22.658;2023-02-20T10:42:41;95260.03;;;12.81;37.77
7480;BME280;3781;42.272;22.658;2023-02-20T10:45:13;95288.78;;;12.91;38.39
7480;BME280;3781;42.272;22.658;2023-02-20T10:47:44;95310.81;;;13.07;38.31
7480;BME280;3781;42.272;22.658;2023-02-20T10:50:19;95307.69;;;12.83;38.85
7480;BME280;3781;42.272;22.658;2023-02-20T10:52:53;95306.47;;;12.57;38.87
7480;BME280;3781;42.272;22.658;2023-02-20T10:55:25;95315.72;;;12.29;39.95
7480;BME280;3781;42.272;22.658;2023-02-20T10:57:55;95318.28;;;12.20;40.02
7480;BME280;3781;42.272;22.658;2023-02-20T11:00:24;95322.81;;;12.18;40.30
7480;BME280;3781;42.272;22.658;2023-02-20T11:02:55;95309.19;;;12.14;39.86
7480;BME280;3781;42.272;22.658;2023-02-20T11:05:26;95330.94;;;11.92;40.08
7480;BME280;3781;42.272;22.658;2023-02-20T11:07:57;95317.31;;;12.00;41.08
7480;BME280;3781;42.272;22.658;2023-02-20T11:10:24;95324.25;;;12.10;40.54
7480;BME280;3781;42.272;22.658;2023-02-20T11:12:53;95332.72;;;12.24;41.08
7480;BME280;3781;42.272;22.658;2023-02-20T11:15:24;95325.25;;;12.40;40.15
7480;BME280;3781;42.272;22.658;2023-02-20T11:17:53;95320.19;;;12.18;40.24
7480;BME280;3781;42.272;22.658;2023-02-20T11:20:39;95321.94;;;11.96;40.48
7480;BME280;3781;42.272;22.658;2023-02-20T11:23:08;95334.06;;;12.07;40.92
7480;BME280;3781;42.272;22.658;2023-02-20T11:25:37;95331.25;;;12.31;40.22
7480;BME280;3781;42.272;22.658;2023-02-20T11:28:09;95324.38;;;12.30;39.62
7480;BME280;3781;42.272;22.658;2023-02-20T11:30:38;95321.81;;;12.60;39.71
7480;BME280;3781;42.272;22.658;2023-02-20T11:33:10;95317.75;;;13.27;39.62
7480;BME280;3781;42.272;22.658;2023-02-20T11:35:40;95322.09;;;13.67;38.19
7480;BME280;3781;42.272;22.658;2023-02-20T11:38:26;95265.59;;;13.46;38.48
7480;BME280;3781;42.272;22.658;2023-02-20T11:43:46;95333.91;;;13.61;38.41
7480;BME280;3781;42.272;22.658;2023-02-20T11:46:15;95332.56;;;13.17;38.30
7480;BME280;3781;42.272;22.658;2023-02-20T11:48:58;95345.22;;;13.31;38.61
7480;BME280;3781;42.272;22.658;2023-02-20T11:51:34;95328.19;;;14.99;35.60
7480;BME280;3781;42.272;22.658;2023-02-20T11:54:13;95313.19;;;14.36;36.69
7480;BME280;3781;42.272;22.658;2023-02-20T11:57:00;95330.38;;;15.04;35.82
7480;BME280;3781;42.272;22.658;2023-02-20T11:59:32;95330.22;;;15.05;35.64
7480;BME280;3781;42.272;22.658;2023-02-20T12:02:09;95254.63;;;14.10;36.42
7480;BME280;3781;42.272;22.658;2023-02-20T12:04:36;95324.59;;;15.37;35.70
7480;BME280;3781;42.272;22.658;2023-02-20T12:07:17;95322.84;;;15.28;35.40
7480;BME280;3781;42.272;22.658;2023-02-20T12:09:46;95321.84;;;14.08;37.00
7480;BME280;3781;42.272;22.658;2023-02-20T12:12:15;95327.31;;;13.67;39.01
7480;BME280;3781;42.272;22.658;2023-02-20T12:14:42;95315.13;;;13.96;37.79
7480;BME280;3781;42.272;22.658;2023-02-20T12:17:10;95311.81;;;13.94;38.07
7480;BME280;3781;42.272;22.658;2023-02-20T12:19:42;95318.78;;;13.06;39.39
7480;BME280;3781;42.272;22.658;2023-02-20T12:22:14;95304.88;;;12.75;39.82
7480;BME280;3781;42.272;22.658;2023-02-20T12:25:02;95286.91;;;12.42;40.45
7480;BME280;3781;42.272;22.658;2023-02-20T12:27:45;95287.25;;;12.58;40.25
7480;BME280;3781;42.272;22.658;2023-02-20T12:30:26;95295.00;;;12.69;40.39
7480;BME280;3781;42.272;22.658;2023-02-20T12:33:05;95261.22;;;13.37;39.09
7480;BME280;3781;42.272;22.658;2023-02-20T12:39:36;95280.34;;;12.47;40.01
7480;BME280;3781;42.272;22.658;2023-02-20T12:42:14;95272.47;;;12.38;40.54
7480;BME280;3781;42.272;22.658;2023-02-20T12:45:09;95267.31;;;12.27;41.05
7480;BME280;3781;42.272;22.658;2023-02-20T12:47:41;95290.66;;;12.07;41.41
7480;BME280;3781;42.272;22.658;2023-02-20T12:50:23;95268.16;;;11.86;41.72
7480;BME280;3781;42.272;22.658;2023-02-20T12:53:05;95276.34;;;11.81;41.47
7480;BME280;3781;42.272;22.658;2023-02-20T12:55:43;95291.94;;;11.81;41.75
7480;BME280;3781;42.272;22.658;2023-02-20T12:58:22;95288.59;;;11.90;41.72
7480;BME280;3781;42.272;22.658;2023-02-20T13:00:58;95250.94;;;11.94;40.94
7480;BME280;3781;42.272;22.658;2023-02-20T13:03:36;95271.28;;;12.72;40.14
7480;BME280;3781;42.272;22.658;2023-02-20T13:06:05;95249.81;;;12.99;39.14
7480;BME280;3781;42.272;22.658;2023-02-20T13:08:34;95285.94;;;12.73;40.18
7480;BME280;3781;42.272;22.658;2023-02-20T13:11:04;95283.19;;;12.74;40.35
7480;BME280;3781;42.272;22.658;2023-02-20T13:13:37;95278.91;;;12.94;39.68
7480;BME280;3781;42.272;22.658;2023-02-20T13:16:10;95285.31;;;13.98;39.13
7480;BME280;3781;42.272;22.658;2023-02-20T13:18:42;95285.06;;;15.58;35.94
7480;BME280;3781;42.272;22.658;2023-02-20T13:21:14;95287.41;;;15.61;35.41
7480;BME280;3781;42.272;22.658;2023-02-20T13:23:42;95291.72;;;15.25;36.11
7480;BME280;3781;42.272;22.658;2023-02-20T13:29:15;95276.75;;;15.45;35.12
7480;BME280;3781;42.272;22.658;2023-02-20T13:31:47;95283.25;;;15.68;35.24
7480;BME280;3781;42.272;22.658;2023-02-20T13:34:33;95272.19;;;15.47;34.70
7480;BME280;3781;42.272;22.658;2023-02-20T13:37:00;95271.94;;;15.13;36.01
7480;BME280;3781;42.272;22.658;2023-02-20T13:39:45;95266.88;;;15.29;35.69
7480;BME280;3781;42.272;22.658;2023-02-20T13:42:25;95259.31;;;15.08;35.80
7480;BME280;3781;42.272;22.658;2023-02-20T13:44:54;95265.06;;;14.85;37.14
7480;BME280;3781;42.272;22.658;2023-02-20T13:47:33;95260.25;;;14.80;37.28
7480;BME280;3781;42.272;22.658;2023-02-20T13:50:01;95261.47;;;14.20;37.28